Time;durP1;ratioP1;P1;durP2;ratioP2;P2;SDS_P1;SDS_P2;PMS_P1;PMS_P2;Temp;Humidity;BMP_temperature;BMP_pressure;BME280_temperature;BME280_humidity;BME280_pressure;Samples;Min_cycle;Max_cycle;Signal;HPM_P1;HPM_P2
2021/10/04 00:00:00;;;;;;;2.13;0.70;;;10.60;92.00;;;;;;2074102;28;20272;-66
2021/10/04 00:01:01;;;;;;;0.40;0.40;;;10.60;92.30;;;;;;2074023;28;20193;-67
2021/10/04 00:02:02;;;;;;;0.83;0.60;;;10.60;92.20;;;;;;2073914;28;20206;-67
2021/10/04 00:03:03;;;;;;;0.47;0.47;;;10.60;92.20;;;;;;2074249;28;20182;-68
2021/10/04 00:04:03;;;;;;;0.53;0.53;;;10.60;92.50;;;;;;2073889;28;20204;-66
2021/10/04 00:05:05;;;;;;;0.40;0.40;;;10.60;93.00;;;;;;2074139;28;20178;-70
2021/10/04 00:06:09;;;;;;;0.65;0.63;;;10.70;91.80;;;;;;2073974;28;20185;-67
2021/10/04 00:07:09;;;;;;;0.50;0.40;;;10.70;91.30;;;;;;2074185;28;20185;-67
2021/10/04 00:08:10;;;;;;;0.50;0.50;;;10.70;90.90;;;;;;2073965;28;20182;-66
2021/10/04 00:09:11;;;;;;;0.60;0.60;;;10.70;90.90;;;;;;2073932;28;20587;-68
2021/10/04 00:10:16;;;;;;;1.67;0.50;;;10.70;91.00;;;;;;2074076;28;20178;-66
2021/10/04 00:11:16;;;;;;;0.52;0.52;;;10.70;91.10;;;;;;2077530;28;20177;-66
2021/10/04 00:12:17;;;;;;;0.57;0.57;;;10.70;92.30;;;;;;2081604;28;20722;-67
2021/10/04 00:13:19;;;;;;;0.50;0.50;;;10.70;91.60;;;;;;2082310;28;20327;-67
2021/10/04 00:14:21;;;;;;;0.45;0.45;;;10.70;91.40;;;;;;2081483;28;20232;-67
2021/10/04 00:15:22;;;;;;;0.82;0.50;;;10.70;91.60;;;;;;2081571;28;20173;-67
2021/10/04 00:16:23;;;;;;;0.43;0.43;;;10.70;91.20;;;;;;2082092;28;20188;-67
2021/10/04 00:17:24;;;;;;;0.50;0.40;;;10.70;91.00;;;;;;2082185;28;20679;-66
2021/10/04 00:18:25;;;;;;;0.77;0.60;;;10.70;91.50;;;;;;2082352;28;20185;-67
2021/10/04 00:19:26;;;;;;;1.20;0.77;;;10.70;92.30;;;;;;2082199;28;20188;-66
2021/10/04 00:20:27;;;;;;;0.47;0.40;;;10.60;93.20;;;;;;2082097;28;20560;-66
2021/10/04 00:21:28;;;;;;;2.00;0.50;;;10.60;93.90;;;;;;2081784;28;20603;-66
2021/10/04 00:22:29;;;;;;;0.70;0.70;;;10.60;94.40;;;;;;2081942;28;20512;-66
2021/10/04 00:23:30;;;;;;;0.60;0.50;;;10.60;94.50;;;;;;2082112;28;20238;-67
2021/10/04 00:24:30;;;;;;;0.68;0.63;;;10.70;94.60;;;;;;2082044;28;20201;-67
2021/10/04 00:25:32;;;;;;;0.60;0.60;;;10.70;94.60;;;;;;2081521;28;20177;-67
2021/10/04 00:26:33;;;;;;;1.00;0.70;;;10.70;94.60;;;;;;2081461;28;20181;-66
2021/10/04 00:27:33;;;;;;;0.50;0.50;;;10.70;94.50;;;;;;2082009;28;20209;-67
2021/10/04 00:28:34;;;;;;;1.17;0.60;;;10.80;94.70;;;;;;2082041;28;20181;-66
2021/10/04 00:29:35;;;;;;;0.60;0.57;;;10.80;94.70;;;;;;2081411;28;20200;-67
2021/10/04 00:30:36;;;;;;;0.60;0.60;;;10.80;94.60;;;;;;2081468;28;20951;-67
2021/10/04 00:31:38;;;;;;;0.63;0.60;;;10.80;94.60;;;;;;2081764;28;20184;-66
2021/10/04 00:32:42;;;;;;;0.50;0.50;;;10.80;94.70;;;;;;2081829;28;20176;-67
2021/10/04 00:33:43;;;;;;;0.82;0.50;;;10.80;94.40;;;;;;2081348;28;20173;-66
2021/10/04 00:34:43;;;;;;;0.70;0.60;;;10.90;93.90;;;;;;2081435;28;20181;-66
2021/10/04 00:35:44;;;;;;;0.57;0.50;;;10.80;93.30;;;;;;2082074;28;20184;-67
2021/10/04 00:36:45;;;;;;;1.70;0.70;;;10.80;93.30;;;;;;2083749;28;20179;-67
2021/10/04 00:37:46;;;;;;;0.53;0.47;;;10.80;93.20;;;;;;2086615;28;20197;-67
2021/10/04 00:38:47;;;;;;;0.50;0.50;;;10.80;93.20;;;;;;2085718;28;20177;-67
2021/10/04 00:39:47;;;;;;;2.37;0.60;;;10.80;93.50;;;;;;2084888;28;20597;-68
2021/10/04 00:40:48;;;;;;;1.87;0.50;;;10.80;93.30;;;;;;2082036;28;20672;-67
2021/10/04 00:41:49;;;;;;;0.57;0.57;;;10.80;93.10;;;;;;2081331;28;20189;-66
2021/10/04 00:42:50;;;;;;;1.40;0.70;;;10.70;93.10;;;;;;2081873;28;20173;-67
2021/10/04 00:43:52;;;;;;;1.10;0.60;;;10.70;93.20;;;;;;2081232;28;20200;-66
2021/10/04 00:44:53;;;;;;;0.60;0.60;;;10.70;93.90;;;;;;2081363;28;20184;-66
2021/10/04 00:45:54;;;;;;;1.53;0.50;;;10.70;94.20;;;;;;2081872;28;20197;-67
2021/10/04 00:46:55;;;;;;;0.40;0.40;;;10.70;94.00;;;;;;2082160;28;20339;-67
2021/10/04 00:47:57;;;;;;;0.40;0.40;;;10.70;94.00;;;;;;2081966;28;20266;-66
2021/10/04 00:48:57;;;;;;;0.50;0.50;;;10.70;94.00;;;;;;2081849;28;20265;-67
2021/10/04 00:49:58;;;;;;;0.70;0.60;;;10.60;93.60;;;;;;2081988;28;20180;-66
2021/10/04 00:50:59;;;;;;;0.50;0.47;;;10.70;93.20;;;;;;2081641;28;20189;-66
2021/10/04 00:51:59;;;;;;;0.40;0.40;;;10.70;92.80;;;;;;2081845;28;20192;-66
2021/10/04 00:53:00;;;;;;;0.60;0.50;;;10.60;93.00;;;;;;2081912;28;20183;-67
2021/10/04 00:54:01;;;;;;;0.53;0.47;;;10.60;93.20;;;;;;2081764;28;20201;-66
2021/10/04 00:55:04;;;;;;;0.47;0.47;;;10.60;93.30;;;;;;2081917;28;20195;-67
2021/10/04 00:56:05;;;;;;;0.60;0.55;;;10.60;93.70;;;;;;2081814;28;20231;-66
2021/10/04 00:57:06;;;;;;;0.50;0.50;;;10.60;93.60;;;;;;2081827;28;20208;-67
2021/10/04 00:58:07;;;;;;;0.75;0.60;;;10.60;93.50;;;;;;2081168;28;20181;-67
2021/10/04 00:59:09;;;;;;;0.57;0.50;;;10.60;94.30;;;;;;2081276;28;20173;-68
2021/10/04 01:00:19;;;;;;;1.05;0.40;;;10.60;94.10;;;;;;2081832;28;20180;-66
2021/10/04 01:01:20;;;;;;;0.57;0.40;;;10.60;93.30;;;;;;2081212;28;20177;-66
2021/10/04 01:02:21;;;;;;;0.60;0.50;;;10.50;93.40;;;;;;2081192;28;20720;-67
2021/10/04 01:03:22;;;;;;;0.40;0.40;;;10.50;93.60;;;;;;2081816;28;20419;-66
2021/10/04 01:04:26;;;;;;;1.75;0.40;;;10.50;92.80;;;;;;2081004;28;20196;-66
2021/10/04 01:05:27;;;;;;;0.50;0.50;;;10.60;92.70;;;;;;2081346;28;20180;-71
2021/10/04 01:06:28;;;;;;;0.47;0.40;;;10.50;92.70;;;;;;2081885;28;20177;-66
2021/10/04 01:07:29;;;;;;;0.52;0.40;;;10.50;92.80;;;;;;2081217;28;20186;-67
2021/10/04 01:08:30;;;;;;;0.43;0.43;;;10.50;93.00;;;;;;2081117;28;20187;-66
2021/10/04 01:09:31;;;;;;;0.40;0.40;;;10.50;92.50;;;;;;2081909;28;20223;-67
2021/10/04 01:10:32;;;;;;;0.40;0.40;;;10.50;91.80;;;;;;2081649;28;20534;-66
2021/10/04 01:11:32;;;;;;;0.80;0.60;;;10.60;91.50;;;;;;2081631;28;20181;-67
2021/10/04 01:12:33;;;;;;;0.60;0.40;;;10.50;91.30;;;;;;2081708;28;20185;-66
2021/10/04 01:13:34;;;;;;;0.50;0.50;;;10.50;91.00;;;;;;2081767;28;20184;-66
2021/10/04 01:14:35;;;;;;;0.50;0.50;;;10.50;91.50;;;;;;2081133;28;20200;-66
2021/10/04 01:15:36;;;;;;;0.50;0.50;;;10.40;91.70;;;;;;2073130;28;20186;-67
2021/10/04 01:16:37;;;;;;;0.50;0.50;;;10.40;92.20;;;;;;2080954;28;20181;-66
2021/10/04 01:17:39;;;;;;;0.53;0.50;;;10.40;92.80;;;;;;2081782;28;20172;-66
2021/10/04 01:18:39;;;;;;;0.88;0.50;;;10.30;92.70;;;;;;2081768;28;20181;-66
2021/10/04 01:19:41;;;;;;;2.40;0.70;;;10.40;92.70;;;;;;2081708;28;20276;-66
2021/10/04 01:20:42;;;;;;;0.88;0.47;;;10.40;92.80;;;;;;2081601;28;20602;-66
2021/10/04 01:21:43;;;;;;;1.58;0.60;;;10.30;92.30;;;;;;2080711;28;20189;-66
2021/10/04 01:22:45;;;;;;;0.53;0.53;;;10.40;92.30;;;;;;2080976;28;20177;-66
2021/10/04 01:23:45;;;;;;;0.60;0.40;;;10.30;92.20;;;;;;2081509;28;20610;-67
2021/10/04 01:24:46;;;;;;;0.40;0.40;;;10.30;92.50;;;;;;2081630;28;20236;-66
2021/10/04 01:25:46;;;;;;;0.53;0.47;;;10.30;91.90;;;;;;2081603;28;20188;-68
2021/10/04 01:26:47;;;;;;;1.00;0.57;;;10.30;91.90;;;;;;2081655;28;20264;-66
2021/10/04 01:27:49;;;;;;;0.40;0.40;;;10.20;92.20;;;;;;2081598;28;20176;-66
2021/10/04 01:28:51;;;;;;;0.30;0.30;;;10.20;92.40;;;;;;2081088;28;20177;-66
2021/10/04 01:29:51;;;;;;;0.68;0.65;;;10.20;92.50;;;;;;2081013;28;20183;-67
2021/10/04 01:30:53;;;;;;;0.50;0.50;;;10.10;92.20;;;;;;2081643;28;20173;-66
2021/10/04 01:31:53;;;;;;;0.82;0.70;;;10.10;92.50;;;;;;2080684;28;20234;-67
2021/10/04 01:32:56;;;;;;;0.80;0.40;;;10.10;92.90;;;;;;2081129;28;20186;-66
2021/10/04 01:33:58;;;;;;;0.50;0.50;;;10.10;92.90;;;;;;2080997;28;20189;-66
2021/10/04 01:34:58;;;;;;;0.47;0.47;;;9.90;92.90;;;;;;2081080;28;20270;-66
2021/10/04 01:35:59;;;;;;;2.00;0.50;;;10.00;93.00;;;;;;2080902;28;20227;-66
2021/10/04 01:37:00;;;;;;;0.67;0.60;;;10.00;93.50;;;;;;2081682;28;20185;-67
2021/10/04 01:38:00;;;;;;;0.70;0.60;;;10.00;93.50;;;;;;2081366;28;20476;-67
2021/10/04 01:39:01;;;;;;;0.80;0.70;;;10.00;93.60;;;;;;2081640;28;20718;-67
2021/10/04 01:40:05;;;;;;;0.87;0.53;;;10.00;93.60;;;;;;2080982;28;20185;-66
2021/10/04 01:41:06;;;;;;;0.60;0.55;;;10.00;93.90;;;;;;2080814;28;20435;-66
2021/10/04 01:42:06;;;;;;;0.60;0.60;;;10.10;93.90;;;;;;2081591;28;20566;-66
2021/10/04 01:43:07;;;;;;;2.37;0.67;;;10.00;93.70;;;;;;2081446;28;20196;-67
2021/10/04 01:44:08;;;;;;;0.50;0.50;;;10.00;93.50;;;;;;2081503;28;20616;-66
2021/10/04 01:45:16;;;;;;;0.70;0.50;;;10.00;93.40;;;;;;2080828;28;20173;-66
2021/10/04 01:46:17;;;;;;;1.75;0.63;;;9.90;93.90;;;;;;2073801;28;20166;-66
2021/10/04 01:47:17;;;;;;;0.60;0.60;;;9.90;94.20;;;;;;2080887;28;20292;-67
2021/10/04 01:48:18;;;;;;;0.50;0.50;;;9.90;94.40;;;;;;2081323;28;20195;-67
2021/10/04 01:49:19;;;;;;;0.53;0.53;;;9.90;94.40;;;;;;2081013;28;20173;-66
2021/10/04 01:50:20;;;;;;;1.97;0.60;;;10.00;94.70;;;;;;2075142;28;20179;-67
2021/10/04 01:51:21;;;;;;;0.60;0.55;;;10.00;94.30;;;;;;2073372;28;20170;-65
2021/10/04 01:52:22;;;;;;;1.17;0.63;;;10.00;94.50;;;;;;2073147;28;20559;-67
2021/10/04 01:53:23;;;;;;;0.90;0.50;;;10.00;94.50;;;;;;2074052;28;20177;-66
2021/10/04 01:54:23;;;;;;;1.17;0.67;;;10.00;94.50;;;;;;2074830;28;20267;-68
2021/10/04 01:55:24;;;;;;;0.40;0.40;;;10.10;94.30;;;;;;2075068;28;20182;-67
2021/10/04 01:56:25;;;;;;;0.77;0.50;;;10.10;94.20;;;;;;2075193;28;20188;-66
2021/10/04 01:57:26;;;;;;;0.70;0.60;;;10.10;94.40;;;;;;2075064;28;20613;-66
2021/10/04 01:58:29;;;;;;;0.68;0.60;;;10.10;94.60;;;;;;2074430;28;20189;-66
2021/10/04 01:59:30;;;;;;;0.68;0.68;;;10.20;94.70;;;;;;2074432;28;20215;-67
2021/10/04 02:00:31;;;;;;;1.00;0.77;;;10.20;94.70;;;;;;2075069;28;20182;-66
2021/10/04 02:01:31;;;;;;;1.38;0.50;;;10.20;94.90;;;;;;2074149;28;20615;-68
2021/10/04 02:02:32;;;;;;;0.90;0.70;;;10.20;94.80;;;;;;2074366;28;20198;-66
2021/10/04 02:03:33;;;;;;;1.40;0.73;;;10.20;94.80;;;;;;2074565;28;20185;-66
2021/10/04 02:04:34;;;;;;;0.50;0.50;;;10.20;94.80;;;;;;2074162;28;20197;-67
2021/10/04 02:05:35;;;;;;;0.67;0.50;;;10.20;94.90;;;;;;2075081;28;20187;-66
2021/10/04 02:06:36;;;;;;;0.75;0.75;;;10.30;94.90;;;;;;2074989;28;20234;-67
2021/10/04 02:07:37;;;;;;;0.83;0.50;;;10.30;94.70;;;;;;2074956;28;20220;-66
2021/10/04 02:08:38;;;;;;;0.60;0.60;;;10.30;94.60;;;;;;2078831;28;20177;-67
2021/10/04 02:09:38;;;;;;;0.80;0.50;;;10.30;94.70;;;;;;2083655;28;20559;-66
2021/10/04 02:10:41;;;;;;;0.70;0.60;;;10.30;94.60;;;;;;2083139;28;20181;-66
2021/10/04 02:11:42;;;;;;;0.50;0.50;;;10.30;94.40;;;;;;2082313;28;20211;-67
2021/10/04 02:12:43;;;;;;;0.50;0.50;;;10.30;94.20;;;;;;2082642;28;20576;-66
2021/10/04 02:13:44;;;;;;;1.37;0.60;;;10.30;93.90;;;;;;2083059;28;20670;-68
2021/10/04 02:14:45;;;;;;;0.70;0.60;;;10.30;94.00;;;;;;2083136;28;20182;-66
2021/10/04 02:15:45;;;;;;;1.17;0.82;;;10.20;93.90;;;;;;2082222;28;20200;-66
2021/10/04 02:16:46;;;;;;;0.50;0.50;;;10.20;94.10;;;;;;2082488;28;20181;-67
2021/10/04 02:17:47;;;;;;;0.80;0.50;;;10.20;94.40;;;;;;2083015;28;20180;-66
2021/10/04 02:18:48;;;;;;;0.50;0.50;;;10.20;94.70;;;;;;2083176;28;20189;-66
2021/10/04 02:19:49;;;;;;;2.57;0.53;;;10.20;94.90;;;;;;2083023;28;20671;-66
2021/10/04 02:20:50;;;;;;;0.93;0.67;;;10.20;95.40;;;;;;2082434;28;20215;-66
2021/10/04 02:21:50;;;;;;;0.50;0.50;;;10.10;95.80;;;;;;2082043;28;20177;-66
2021/10/04 02:22:51;;;;;;;1.57;0.57;;;10.10;96.00;;;;;;2083344;28;20177;-66
2021/10/04 02:23:52;;;;;;;0.63;0.60;;;10.10;96.10;;;;;;2083063;28;20562;-67
2021/10/04 02:24:53;;;;;;;0.60;0.60;;;10.10;96.20;;;;;;2083038;28;20230;-66
2021/10/04 02:25:53;;;;;;;0.77;0.77;;;10.10;96.00;;;;;;2083047;28;20212;-66
2021/10/04 02:26:54;;;;;;;1.07;0.60;;;10.10;95.80;;;;;;2083067;28;20186;-67
2021/10/04 02:27:55;;;;;;;1.27;0.63;;;10.10;96.10;;;;;;2083077;28;20181;-66
2021/10/04 02:28:55;;;;;;;1.27;0.60;;;10.00;96.40;;;;;;2083149;28;20177;-66
2021/10/04 02:29:56;;;;;;;0.50;0.50;;;9.90;96.70;;;;;;2082979;28;20192;-67
2021/10/04 02:30:57;;;;;;;0.60;0.60;;;9.90;96.90;;;;;;2083044;28;20200;-66
2021/10/04 02:31:58;;;;;;;0.60;0.50;;;10.00;96.90;;;;;;2082668;28;20574;-67
2021/10/04 02:32:59;;;;;;;0.80;0.60;;;10.00;96.70;;;;;;2083065;28;20187;-67
2021/10/04 02:34:00;;;;;;;0.50;0.50;;;10.10;96.60;;;;;;2082246;28;20208;-66
2021/10/04 02:35:05;;;;;;;0.50;0.47;;;10.10;96.50;;;;;;2082363;28;20296;-67
2021/10/04 02:36:06;;;;;;;0.45;0.45;;;10.10;96.60;;;;;;2088283;28;20196;-66
2021/10/04 02:37:06;;;;;;;0.60;0.60;;;10.10;96.80;;;;;;2082852;28;20185;-67
2021/10/04 02:38:08;;;;;;;0.80;0.40;;;10.10;96.90;;;;;;2082901;28;20183;-66
2021/10/04 02:39:09;;;;;;;0.77;0.52;;;10.00;97.00;;;;;;2082431;28;20178;-66
2021/10/04 02:40:11;;;;;;;0.57;0.50;;;10.00;97.30;;;;;;2082253;28;20205;-66
2021/10/04 02:41:11;;;;;;;0.60;0.52;;;10.00;97.20;;;;;;2082856;28;20260;-66
2021/10/04 02:42:12;;;;;;;0.70;0.60;;;10.00;97.20;;;;;;2082852;28;20204;-66
2021/10/04 02:43:18;;;;;;;0.70;0.70;;;10.00;97.20;;;;;;2083048;28;20177;-67
2021/10/04 02:44:18;;;;;;;0.93;0.65;;;10.00;97.20;;;;;;2082807;28;20205;-67
2021/10/04 02:45:22;;;;;;;1.23;0.60;;;10.00;97.20;;;;;;2082820;28;20201;-66
2021/10/04 02:46:23;;;;;;;1.83;0.60;;;10.00;97.10;;;;;;2082314;28;20181;-68
2021/10/04 02:47:24;;;;;;;1.13;0.60;;;10.10;97.30;;;;;;2082317;28;20180;-66
2021/10/04 02:48:24;;;;;;;0.40;0.40;;;10.10;97.40;;;;;;2082883;28;20180;-66
2021/10/04 02:49:26;;;;;;;0.73;0.70;;;10.00;97.50;;;;;;2082300;28;20169;-66
2021/10/04 02:50:28;;;;;;;0.60;0.60;;;10.00;97.40;;;;;;2082107;28;20210;-65
2021/10/04 02:51:29;;;;;;;1.80;0.50;;;10.00;97.30;;;;;;2082667;28;20161;-68
2021/10/04 02:52:29;;;;;;;1.03;0.40;;;10.00;97.30;;;;;;2082729;28;20177;-66
2021/10/04 02:53:30;;;;;;;1.10;0.50;;;10.10;97.10;;;;;;2082847;28;20185;-66
2021/10/04 02:54:31;;;;;;;2.20;0.57;;;10.10;96.90;;;;;;2082907;28;20618;-67
2021/10/04 02:55:32;;;;;;;0.43;0.43;;;10.10;96.30;;;;;;2082715;28;20215;-66
2021/10/04 02:56:32;;;;;;;1.00;0.63;;;10.00;96.50;;;;;;2082811;28;20200;-67
2021/10/04 02:57:33;;;;;;;0.53;0.53;;;10.00;96.60;;;;;;2085475;28;20183;-67
2021/10/04 02:58:34;;;;;;;0.57;0.57;;;10.00;97.00;;;;;;2086196;28;20189;-67
2021/10/04 02:59:35;;;;;;;0.50;0.50;;;10.00;96.40;;;;;;2085630;28;20267;-68
2021/10/04 03:00:37;;;;;;;0.70;0.60;;;10.00;96.60;;;;;;2083936;28;20287;-66
2021/10/04 03:01:38;;;;;;;1.08;0.60;;;9.90;96.60;;;;;;2081902;28;20612;-66
2021/10/04 03:02:39;;;;;;;0.63;0.60;;;9.90;96.60;;;;;;2082244;28;20295;-67
2021/10/04 03:03:39;;;;;;;0.70;0.70;;;9.90;96.70;;;;;;2082792;28;20703;-66
2021/10/04 03:04:40;;;;;;;0.97;0.70;;;9.90;96.80;;;;;;2082732;28;20212;-66
2021/10/04 03:05:41;;;;;;;0.47;0.47;;;9.90;96.80;;;;;;2082246;28;20267;-68
2021/10/04 03:06:41;;;;;;;2.87;0.63;;;10.00;97.00;;;;;;2082652;28;20192;-66
2021/10/04 03:07:42;;;;;;;0.60;0.60;;;10.00;96.90;;;;;;2082967;28;20176;-66
2021/10/04 03:08:43;;;;;;;0.70;0.70;;;10.00;96.90;;;;;;2082844;28;20177;-67
2021/10/04 03:09:44;;;;;;;0.63;0.63;;;10.00;96.80;;;;;;2082843;28;20180;-66
2021/10/04 03:10:45;;;;;;;2.63;0.90;;;10.00;96.70;;;;;;2082010;28;20180;-65
2021/10/04 03:11:45;;;;;;;1.10;0.80;;;10.00;96.80;;;;;;2081900;28;20209;-66
2021/10/04 03:12:46;;;;;;;0.80;0.73;;;10.10;96.90;;;;;;2082728;28;20181;-67
2021/10/04 03:13:47;;;;;;;0.67;0.60;;;10.10;96.70;;;;;;2082554;28;20184;-66
2021/10/04 03:14:49;;;;;;;3.20;0.80;;;10.20;96.60;;;;;;2082601;28;20708;-66
2021/10/04 03:15:50;;;;;;;1.35;0.70;;;10.10;96.40;;;;;;2082575;28;20183;-66
2021/10/04 03:16:51;;;;;;;0.70;0.60;;;10.10;96.50;;;;;;2082555;28;20184;-65
2021/10/04 03:17:52;;;;;;;0.60;0.60;;;10.10;96.50;;;;;;2082752;28;20177;-66
2021/10/04 03:18:53;;;;;;;0.70;0.70;;;10.10;96.60;;;;;;2082103;28;20181;-66
2021/10/04 03:19:53;;;;;;;0.70;0.70;;;10.10;96.60;;;;;;2081883;28;20268;-66
2021/10/04 03:20:54;;;;;;;1.17;0.80;;;10.10;96.60;;;;;;2082592;28;20177;-66
2021/10/04 03:21:55;;;;;;;0.87;0.77;;;10.10;96.30;;;;;;2082456;28;20181;-65
2021/10/04 03:22:56;;;;;;;0.87;0.70;;;10.10;96.40;;;;;;2082680;28;20181;-66
2021/10/04 03:23:57;;;;;;;0.80;0.80;;;10.10;96.60;;;;;;2082543;28;20219;-66
2021/10/04 03:24:58;;;;;;;0.95;0.90;;;10.10;96.70;;;;;;2081948;28;20543;-66
2021/10/04 03:25:58;;;;;;;0.80;0.73;;;10.10;96.70;;;;;;2081889;28;20196;-65
2021/10/04 03:27:00;;;;;;;0.70;0.60;;;10.10;96.60;;;;;;2082078;28;20208;-66
2021/10/04 03:28:02;;;;;;;1.20;0.80;;;10.10;96.70;;;;;;2081968;28;20184;-66
2021/10/04 03:29:03;;;;;;;1.00;0.80;;;10.10;96.80;;;;;;2081961;28;20181;-66
2021/10/04 03:30:05;;;;;;;1.40;1.00;;;10.10;97.40;;;;;;2081915;28;20203;-66
2021/10/04 03:31:07;;;;;;;1.75;0.70;;;10.10;97.00;;;;;;2081481;28;20196;-66
2021/10/04 03:32:07;;;;;;;1.13;0.77;;;10.20;97.00;;;;;;2081926;28;20571;-68
2021/10/04 03:33:09;;;;;;;0.70;0.70;;;10.20;96.90;;;;;;2082577;28;20189;-66
2021/10/04 03:34:11;;;;;;;2.53;0.80;;;10.10;97.00;;;;;;2082400;28;20201;-66
2021/10/04 03:35:12;;;;;;;0.70;0.70;;;10.10;97.00;;;;;;2082465;28;20188;-66
2021/10/04 03:36:13;;;;;;;1.45;0.60;;;10.10;96.90;;;;;;2082541;28;20640;-66
2021/10/04 03:37:15;;;;;;;1.60;0.70;;;10.10;96.80;;;;;;2082555;28;20173;-66
2021/10/04 03:38:16;;;;;;;0.60;0.60;;;10.10;96.50;;;;;;2082364;28;20184;-67
2021/10/04 03:39:17;;;;;;;0.83;0.73;;;10.00;96.70;;;;;;2082509;28;20180;-68
2021/10/04 03:40:19;;;;;;;1.15;0.60;;;10.00;96.60;;;;;;2082608;28;20177;-67
2021/10/04 03:41:20;;;;;;;3.03;1.10;;;10.10;96.80;;;;;;2082338;28;20269;-66
2021/10/04 03:42:21;;;;;;;2.45;1.98;;;10.00;97.30;;;;;;2082350;28;20193;-66
2021/10/04 03:43:22;;;;;;;1.07;0.97;;;10.00;96.90;;;;;;2080784;28;20639;-67
2021/10/04 03:44:23;;;;;;;0.70;0.70;;;10.00;96.90;;;;;;2075427;28;20711;-66
2021/10/04 03:45:23;;;;;;;2.03;1.10;;;10.00;96.90;;;;;;2074172;28;20173;-66
2021/10/04 03:46:24;;;;;;;1.10;0.90;;;10.00;96.90;;;;;;2074297;28;20712;-66
2021/10/04 03:47:25;;;;;;;1.00;0.87;;;10.00;97.00;;;;;;2074214;28;20699;-66
2021/10/04 03:48:26;;;;;;;1.83;1.00;;;10.00;97.20;;;;;;2074111;28;20282;-66
2021/10/04 03:49:26;;;;;;;2.60;2.07;;;9.90;97.60;;;;;;2074236;28;20178;-66
2021/10/04 03:50:27;;;;;;;4.17;3.43;;;9.90;97.40;;;;;;2074011;28;20216;-65
2021/10/04 03:51:28;;;;;;;4.10;3.20;;;9.90;97.30;;;;;;2073889;28;20316;-66
2021/10/04 03:52:29;;;;;;;1.98;1.63;;;9.90;97.30;;;;;;2074057;28;20239;-66
2021/10/04 03:53:30;;;;;;;1.30;1.20;;;10.00;97.20;;;;;;2074360;28;20189;-66
2021/10/04 03:54:30;;;;;;;1.57;1.00;;;10.00;97.10;;;;;;2073963;28;20236;-65
2021/10/04 03:55:31;;;;;;;2.20;1.10;;;10.10;97.20;;;;;;2074131;28;20181;-66
2021/10/04 03:56:32;;;;;;;0.70;0.60;;;10.00;97.20;;;;;;2073986;28;20551;-66
2021/10/04 03:57:33;;;;;;;1.10;0.83;;;10.10;97.10;;;;;;2073999;28;20181;-66
2021/10/04 03:58:34;;;;;;;1.88;0.90;;;10.10;96.70;;;;;;2074051;28;20182;-65
2021/10/04 03:59:35;;;;;;;1.60;0.87;;;10.10;96.60;;;;;;2074261;28;20209;-67
2021/10/04 04:00:36;;;;;;;0.75;0.75;;;10.00;96.90;;;;;;2074023;28;20185;-66
2021/10/04 04:01:36;;;;;;;0.70;0.70;;;10.00;96.80;;;;;;2073889;28;20185;-66
2021/10/04 04:02:37;;;;;;;1.53;1.00;;;9.90;97.00;;;;;;2073855;28;20201;-66
2021/10/04 04:03:38;;;;;;;3.60;1.70;;;10.00;97.20;;;;;;2073940;28;20177;-67
2021/10/04 04:04:39;;;;;;;3.20;1.87;;;10.00;97.30;;;;;;2074062;28;20192;-66
2021/10/04 04:05:40;;;;;;;3.75;1.83;;;10.00;97.30;;;;;;2073854;28;20186;-68
2021/10/04 04:06:41;;;;;;;2.20;1.60;;;10.00;97.30;;;;;;2073889;28;20206;-66
2021/10/04 04:07:42;;;;;;;3.70;1.40;;;10.00;97.20;;;;;;2073903;28;20311;-65
2021/10/04 04:08:42;;;;;;;1.00;0.90;;;10.10;97.20;;;;;;2073948;28;20205;-67
2021/10/04 04:09:43;;;;;;;1.50;0.90;;;10.10;97.20;;;;;;2081150;28;20185;-67
2021/10/04 04:10:44;;;;;;;1.10;0.80;;;10.10;97.20;;;;;;2082298;28;20599;-67
2021/10/04 04:11:44;;;;;;;1.03;0.93;;;10.00;97.30;;;;;;2081931;28;20180;-68
2021/10/04 04:12:46;;;;;;;1.20;1.10;;;10.00;97.60;;;;;;2082224;28;20209;-66
2021/10/04 04:13:46;;;;;;;2.63;0.90;;;9.90;97.50;;;;;;2082170;28;20192;-66
2021/10/04 04:14:47;;;;;;;1.10;0.90;;;10.00;97.50;;;;;;2082380;28;20647;-66
2021/10/04 04:15:48;;;;;;;2.00;1.23;;;10.00;97.50;;;;;;2082434;28;20200;-66
2021/10/04 04:16:48;;;;;;;1.53;1.43;;;10.00;97.30;;;;;;2081553;28;20181;-67
2021/10/04 04:17:49;;;;;;;1.77;1.10;;;10.10;97.00;;;;;;2082023;28;20177;-67
2021/10/04 04:18:50;;;;;;;1.03;0.80;;;10.10;96.80;;;;;;2082236;28;20185;-66
2021/10/04 04:19:51;;;;;;;0.90;0.60;;;10.00;96.50;;;;;;2082135;28;20283;-66
2021/10/04 04:20:52;;;;;;;0.60;0.60;;;10.00;96.40;;;;;;2082023;28;20181;-66
2021/10/04 04:21:53;;;;;;;0.82;0.60;;;10.00;96.40;;;;;;2081165;28;20687;-65
2021/10/04 04:22:53;;;;;;;0.70;0.70;;;10.00;96.40;;;;;;2081607;28;20173;-68
2021/10/04 04:23:54;;;;;;;1.80;0.60;;;10.00;96.50;;;;;;2082006;28;20652;-65
2021/10/04 04:24:56;;;;;;;2.53;0.80;;;10.00;96.70;;;;;;2082209;28;20180;-67
2021/10/04 04:25:56;;;;;;;1.25;0.77;;;9.90;96.80;;;;;;2081985;28;20384;-66
2021/10/04 04:26:57;;;;;;;0.60;0.60;;;9.90;96.80;;;;;;2082200;28;20308;-66
2021/10/04 04:28:00;;;;;;;2.67;1.07;;;9.80;97.50;;;;;;2082095;28;20177;-66
2021/10/04 04:29:01;;;;;;;1.58;0.95;;;9.80;97.60;;;;;;2082054;28;20247;-67
2021/10/04 04:30:07;;;;;;;1.10;1.00;;;9.80;97.90;;;;;;2081897;28;20208;-66
2021/10/04 04:31:08;;;;;;;1.50;0.93;;;9.80;98.00;;;;;;2081904;28;20230;-66
2021/10/04 04:32:11;;;;;;;1.00;0.90;;;9.80;98.00;;;;;;2082019;28;20254;-66
2021/10/04 04:33:11;;;;;;;0.68;0.63;;;9.80;98.00;;;;;;2081390;28;20272;-66
2021/10/04 04:34:12;;;;;;;1.70;0.90;;;9.90;98.00;;;;;;2081173;28;20193;-66
2021/10/04 04:35:13;;;;;;;0.97;0.90;;;9.90;97.80;;;;;;2081926;28;20181;-66
2021/10/04 04:36:13;;;;;;;0.73;0.73;;;9.90;97.80;;;;;;2081898;28;20264;-66
2021/10/04 04:37:14;;;;;;;0.77;0.60;;;10.00;97.70;;;;;;2081978;28;20423;-66
2021/10/04 04:38:15;;;;;;;0.63;0.63;;;10.00;97.50;;;;;;2081925;28;20554;-67
2021/10/04 04:39:16;;;;;;;2.10;0.77;;;10.00;97.20;;;;;;2082147;28;20726;-66
2021/10/04 04:40:18;;;;;;;0.80;0.70;;;9.90;97.20;;;;;;2081939;28;20176;-67
2021/10/04 04:41:20;;;;;;;0.70;0.70;;;9.90;97.20;;;;;;2081375;28;20185;-67
2021/10/04 04:42:21;;;;;;;0.52;0.52;;;9.90;97.30;;;;;;2081371;28;20208;-65
2021/10/04 04:43:21;;;;;;;1.03;0.70;;;9.90;97.30;;;;;;2081955;28;20252;-67
2021/10/04 04:44:23;;;;;;;1.70;0.80;;;9.90;97.00;;;;;;2081783;28;20204;-66
2021/10/04 04:45:24;;;;;;;1.65;0.52;;;9.90;96.60;;;;;;2081208;28;20558;-66
2021/10/04 04:46:25;;;;;;;1.23;0.80;;;9.90;96.30;;;;;;2081334;28;20184;-66
2021/10/04 04:47:25;;;;;;;0.80;0.77;;;9.90;96.00;;;;;;2081139;28;20178;-67
2021/10/04 04:48:27;;;;;;;0.67;0.67;;;9.90;96.00;;;;;;2072974;28;20265;-65
2021/10/04 04:49:27;;;;;;;0.57;0.57;;;9.90;96.20;;;;;;2081184;28;20211;-67
2021/10/04 04:50:29;;;;;;;0.90;0.80;;;9.90;96.30;;;;;;2081681;28;20192;-67
2021/10/04 04:51:29;;;;;;;0.55;0.55;;;9.80;96.50;;;;;;2080847;28;20173;-66
2021/10/04 04:52:30;;;;;;;1.60;0.93;;;9.90;96.80;;;;;;2081147;28;20173;-65
2021/10/04 04:53:31;;;;;;;0.60;0.60;;;9.80;97.10;;;;;;2081954;28;20239;-66
2021/10/04 04:54:32;;;;;;;0.83;0.70;;;9.80;97.20;;;;;;2081517;28;20663;-66
2021/10/04 04:55:32;;;;;;;0.53;0.53;;;9.90;97.30;;;;;;2081684;28;20189;-66
2021/10/04 04:56:33;;;;;;;1.87;0.60;;;9.90;97.30;;;;;;2081571;28;20189;-66
2021/10/04 04:57:34;;;;;;;1.03;0.80;;;9.90;97.30;;;;;;2081587;28;20181;-67
2021/10/04 04:58:36;;;;;;;0.70;0.70;;;9.90;97.30;;;;;;2081564;28;20189;-66
2021/10/04 04:59:37;;;;;;;1.20;0.80;;;10.00;97.30;;;;;;2081516;28;20199;-65
2021/10/04 05:00:38;;;;;;;1.13;0.60;;;10.00;97.20;;;;;;2081616;28;20191;-66
2021/10/04 05:01:38;;;;;;;2.93;0.80;;;9.90;97.20;;;;;;2081318;28;20216;-66
2021/10/04 05:02:41;;;;;;;1.07;0.80;;;9.90;97.20;;;;;;2081558;28;20387;-65
2021/10/04 05:03:41;;;;;;;1.60;0.80;;;10.00;97.10;;;;;;2081486;28;20181;-66
2021/10/04 05:04:42;;;;;;;1.10;0.70;;;10.00;97.10;;;;;;2081568;28;20173;-66
2021/10/04 05:05:43;;;;;;;0.60;0.60;;;10.00;97.20;;;;;;2081473;28;20532;-66
2021/10/04 05:06:44;;;;;;;1.33;0.80;;;10.00;97.30;;;;;;2081422;28;20180;-66
2021/10/04 05:07:45;;;;;;;0.70;0.70;;;10.00;97.20;;;;;;2081544;28;20465;-65
2021/10/04 05:08:46;;;;;;;1.25;0.73;;;10.00;97.30;;;;;;2081565;28;20177;-65
2021/10/04 05:09:46;;;;;;;0.80;0.80;;;10.00;97.40;;;;;;2081483;28;20181;-65
2021/10/04 05:10:47;;;;;;;0.77;0.77;;;10.00;97.50;;;;;;2081519;28;20172;-65
2021/10/04 05:11:48;;;;;;;0.70;0.70;;;9.90;97.50;;;;;;2081336;28;20184;-66
2021/10/04 05:12:49;;;;;;;0.80;0.80;;;10.00;97.50;;;;;;2081635;28;20204;-66
2021/10/04 05:13:49;;;;;;;3.57;0.80;;;9.90;97.40;;;;;;2080874;28;20690;-65
2021/10/04 05:14:50;;;;;;;0.70;0.70;;;9.90;97.40;;;;;;2080921;28;20184;-66
2021/10/04 05:15:51;;;;;;;1.60;1.10;;;9.90;97.30;;;;;;2081395;28;20188;-65
2021/10/04 05:16:51;;;;;;;3.17;0.80;;;9.90;97.30;;;;;;2081585;28;20180;-67
2021/10/04 05:17:52;;;;;;;1.13;0.80;;;9.90;97.30;;;;;;2081337;28;20180;-65